sensor_id;sensor_type;location;lat;lon;timestamp;P1;durP1;ratioP1;P2;durP2;ratioP2
65996;SDS011;52765;52.258;21.052;2022-10-16T00:01:51;17.48;;;11.05;;
65996;SDS011;52765;52.258;21.052;2022-10-16T00:04:16;16.23;;;10.13;;
65996;SDS011;52765;52.258;21.052;2022-10-16T00:06:43;17.00;;;10.55;;
65996;SDS011;52765;52.258;21.052;2022-10-16T00:09:10;17.02;;;10.88;;
65996;SDS011;52765;52.258;21.052;2022-10-16T00:11:37;19.52;;;10.82;;
65996;SDS011;52765;52.258;21.052;2022-10-16T00:14:07;16.80;;;10.50;;
65996;SDS011;52765;52.258;21.052;2022-10-16T00:16:36;14.85;;;10.00;;
65996;SDS011;52765;52.258;21.052;2022-10-16T00:19:03;18.40;;;10.95;;
65996;SDS011;52765;52.258;21.052;2022-10-16T00:21:30;18.50;;;10.32;;
65996;SDS011;52765;52.258;21.052;2022-10-16T00:24:00;16.50;;;10.68;;
65996;SDS011;52765;52.258;21.052;2022-10-16T00:26:29;17.52;;;11.07;;
65996;SDS011;52765;52.258;21.052;2022-10-16T00:28:56;17.55;;;10.70;;
65996;SDS011;52765;52.258;21.052;2022-10-16T00:31:22;17.92;;;10.68;;
65996;SDS011;52765;52.258;21.052;2022-10-16T00:33:48;17.05;;;10.90;;
65996;SDS011;52765;52.258;21.052;2022-10-16T00:36:16;17.67;;;10.85;;
65996;SDS011;52765;52.258;21.052;2022-10-16T00:38:43;19.77;;;11.95;;
65996;SDS011;52765;52.258;21.052;2022-10-16T00:41:10;19.05;;;11.25;;
65996;SDS011;52765;52.258;21.052;2022-10-16T00:43:43;19.83;;;12.32;;
65996;SDS011;52765;52.258;21.052;2022-10-16T00:46:51;23.55;;;12.15;;
65996;SDS011;52765;52.258;21.052;2022-10-16T00:49:04;18.55;;;11.30;;
65996;SDS011;52765;52.258;21.052;2022-10-16T00:51:31;22.55;;;12.82;;
65996;SDS011;52765;52.258;21.052;2022-10-16T00:53:59;20.63;;;12.45;;
65996;SDS011;52765;52.258;21.052;2022-10-16T00:56:27;20.73;;;12.40;;
65996;SDS011;52765;52.258;21.052;2022-10-16T00:58:53;22.15;;;12.63;;
65996;SDS011;52765;52.258;21.052;2022-10-16T01:01:19;22.20;;;13.45;;
65996;SDS011;52765;52.258;21.052;2022-10-16T01:03:45;21.30;;;12.40;;
65996;SDS011;52765;52.258;21.052;2022-10-16T01:06:22;22.35;;;13.43;;
65996;SDS011;52765;52.258;21.052;2022-10-16T01:11:30;24.35;;;14.15;;
65996;SDS011;52765;52.258;21.052;2022-10-16T01:14:06;20.42;;;13.57;;
65996;SDS011;52765;52.258;21.052;2022-10-16T01:16:44;22.30;;;13.77;;
65996;SDS011;52765;52.258;21.052;2022-10-16T01:22:29;25.77;;;14.25;;
65996;SDS011;52765;52.258;21.052;2022-10-16T01:25:04;24.20;;;13.52;;
65996;SDS011;52765;52.258;21.052;2022-10-16T01:27:34;23.30;;;13.88;;
65996;SDS011;52765;52.258;21.052;2022-10-16T01:30:10;22.55;;;13.73;;
65996;SDS011;52765;52.258;21.052;2022-10-16T01:32:46;23.25;;;13.77;;
65996;SDS011;52765;52.258;21.052;2022-10-16T01:35:18;25.15;;;14.77;;
65996;SDS011;52765;52.258;21.052;2022-10-16T01:40:16;23.30;;;14.30;;
65996;SDS011;52765;52.258;21.052;2022-10-16T01:42:46;24.42;;;14.15;;
65996;SDS011;52765;52.258;21.052;2022-10-16T01:45:15;22.63;;;13.48;;
65996;SDS011;52765;52.258;21.052;2022-10-16T01:47:44;23.00;;;13.73;;
65996;SDS011;52765;52.258;21.052;2022-10-16T01:50:12;24.98;;;14.55;;
65996;SDS011;52765;52.258;21.052;2022-10-16T01:52:41;21.95;;;12.75;;
65996;SDS011;52765;52.258;21.052;2022-10-16T01:55:10;21.80;;;13.57;;
65996;SDS011;52765;52.258;21.052;2022-10-16T01:57:38;20.20;;;13.00;;
65996;SDS011;52765;52.258;21.052;2022-10-16T02:00:10;25.35;;;13.52;;
65996;SDS011;52765;52.258;21.052;2022-10-16T02:02:38;20.92;;;13.30;;
65996;SDS011;52765;52.258;21.052;2022-10-16T02:05:18;21.40;;;13.85;;
65996;SDS011;52765;52.258;21.052;2022-10-16T02:07:45;21.42;;;13.50;;
65996;SDS011;52765;52.258;21.052;2022-10-16T02:10:11;20.85;;;12.95;;
65996;SDS011;52765;52.258;21.052;2022-10-16T02:12:37;25.58;;;15.00;;
65996;SDS011;52765;52.258;21.052;2022-10-16T02:15:06;20.75;;;13.77;;
65996;SDS011;52765;52.258;21.052;2022-10-16T02:17:32;25.85;;;15.13;;
65996;SDS011;52765;52.258;21.052;2022-10-16T02:19:58;21.52;;;13.65;;
65996;SDS011;52765;52.258;21.052;2022-10-16T02:22:34;22.80;;;14.10;;
65996;SDS011;52765;52.258;21.052;2022-10-16T02:25:08;26.38;;;14.52;;
65996;SDS011;52765;52.258;21.052;2022-10-16T02:30:25;23.60;;;14.57;;
65996;SDS011;52765;52.258;21.052;2022-10-16T02:32:57;21.75;;;13.27;;
65996;SDS011;52765;52.258;21.052;2022-10-16T02:35:27;23.05;;;14.13;;
65996;SDS011;52765;52.258;21.052;2022-10-16T02:37:54;24.25;;;14.40;;
65996;SDS011;52765;52.258;21.052;2022-10-16T02:40:21;24.38;;;15.02;;
65996;SDS011;52765;52.258;21.052;2022-10-16T02:42:50;25.73;;;15.38;;
65996;SDS011;52765;52.258;21.052;2022-10-16T02:45:17;26.40;;;15.80;;
65996;SDS011;52765;52.258;21.052;2022-10-16T02:47:43;24.65;;;16.02;;
65996;SDS011;52765;52.258;21.052;2022-10-16T02:50:09;24.83;;;15.95;;
65996;SDS011;52765;52.258;21.052;2022-10-16T02:52:34;27.45;;;16.45;;
65996;SDS011;52765;52.258;21.052;2022-10-16T02:55:00;27.75;;;16.55;;
65996;SDS011;52765;52.258;21.052;2022-10-16T02:57:25;25.38;;;15.70;;
65996;SDS011;52765;52.258;21.052;2022-10-16T02:59:51;25.13;;;15.85;;
65996;SDS011;52765;52.258;21.052;2022-10-16T03:02:17;28.27;;;16.75;;
65996;SDS011;52765;52.258;21.052;2022-10-16T03:04:42;27.05;;;16.27;;
65996;SDS011;52765;52.258;21.052;2022-10-16T03:07:08;25.30;;;15.23;;
65996;SDS011;52765;52.258;21.052;2022-10-16T03:09:33;25.77;;;15.98;;
65996;SDS011;52765;52.258;21.052;2022-10-16T03:11:59;26.20;;;15.73;;
65996;SDS011;52765;52.258;21.052;2022-10-16T03:14:24;27.55;;;16.50;;
65996;SDS011;52765;52.258;21.052;2022-10-16T03:16:50;30.08;;;18.10;;
65996;SDS011;52765;52.258;21.052;2022-10-16T03:19:16;27.50;;;16.85;;
65996;SDS011;52765;52.258;21.052;2022-10-16T03:21:42;28.77;;;18.13;;
65996;SDS011;52765;52.258;21.052;2022-10-16T03:24:08;27.48;;;16.63;;
65996;SDS011;52765;52.258;21.052;2022-10-16T03:26:33;27.67;;;16.63;;
65996;SDS011;52765;52.258;21.052;2022-10-16T03:28:59;28.42;;;17.02;;
65996;SDS011;52765;52.258;21.052;2022-10-16T03:31:24;31.50;;;17.48;;
65996;SDS011;52765;52.258;21.052;2022-10-16T03:33:50;25.25;;;16.05;;
65996;SDS011;52765;52.258;21.052;2022-10-16T03:36:15;30.58;;;17.15;;
65996;SDS011;52765;52.258;21.052;2022-10-16T03:38:40;26.48;;;16.65;;
65996;SDS011;52765;52.258;21.052;2022-10-16T03:41:06;27.92;;;16.20;;
65996;SDS011;52765;52.258;21.052;2022-10-16T03:43:32;26.75;;;16.80;;
65996;SDS011;52765;52.258;21.052;2022-10-16T03:45:58;27.25;;;15.05;;
65996;SDS011;52765;52.258;21.052;2022-10-16T03:48:24;27.23;;;16.05;;
65996;SDS011;52765;52.258;21.052;2022-10-16T03:50:49;28.98;;;16.55;;
65996;SDS011;52765;52.258;21.052;2022-10-16T03:53:16;24.85;;;15.73;;
65996;SDS011;52765;52.258;21.052;2022-10-16T03:55:42;23.75;;;15.68;;
65996;SDS011;52765;52.258;21.052;2022-10-16T03:58:08;28.80;;;16.10;;
65996;SDS011;52765;52.258;21.052;2022-10-16T04:00:33;24.67;;;14.82;;
65996;SDS011;52765;52.258;21.052;2022-10-16T04:02:59;24.48;;;15.23;;
65996;SDS011;52765;52.258;21.052;2022-10-16T04:05:26;25.27;;;15.20;;
65996;SDS011;52765;52.258;21.052;2022-10-16T04:07:51;27.95;;;16.00;;
65996;SDS011;52765;52.258;21.052;2022-10-16T04:10:17;25.55;;;15.65;;
65996;SDS011;52765;52.258;21.052;2022-10-16T04:12:44;28.92;;;16.23;;
65996;SDS011;52765;52.258;21.052;2022-10-16T04:15:09;26.15;;;15.52;;
65996;SDS011;52765;52.258;21.052;2022-10-16T04:17:35;24.25;;;15.65;;
65996;SDS011;52765;52.258;21.052;2022-10-16T04:20:00;26.67;;;15.57;;
65996;SDS011;52765;52.258;21.052;2022-10-16T04:22:26;24.98;;;15.68;;
65996;SDS011;52765;52.258;21.052;2022-10-16T04:24:51;27.95;;;16.23;;
65996;SDS011;52765;52.258;21.052;2022-10-16T04:27:17;26.00;;;16.30;;
65996;SDS011;52765;52.258;21.052;2022-10-16T04:29:42;23.83;;;15.68;;
65996;SDS011;52765;52.258;21.052;2022-10-16T04:32:08;26.75;;;15.32;;
65996;SDS011;52765;52.258;21.052;2022-10-16T04:34:34;26.90;;;15.77;;
65996;SDS011;52765;52.258;21.052;2022-10-16T04:37:05;26.15;;;14.82;;
65996;SDS011;52765;52.258;21.052;2022-10-16T04:39:31;26.13;;;15.45;;
65996;SDS011;52765;52.258;21.052;2022-10-16T04:41:56;21.80;;;14.38;;
65996;SDS011;52765;52.258;21.052;2022-10-16T04:44:22;26.85;;;15.63;;
65996;SDS011;52765;52.258;21.052;2022-10-16T04:46:49;28.30;;;15.55;;
65996;SDS011;52765;52.258;21.052;2022-10-16T04:49:16;24.77;;;15.60;;
65996;SDS011;52765;52.258;21.052;2022-10-16T04:51:41;26.08;;;14.82;;
65996;SDS011;52765;52.258;21.052;2022-10-16T04:54:08;29.25;;;15.70;;
65996;SDS011;52765;52.258;21.052;2022-10-16T04:56:34;26.55;;;15.50;;
65996;SDS011;52765;52.258;21.052;2022-10-16T04:59:07;25.75;;;15.48;;
65996;SDS011;52765;52.258;21.052;2022-10-16T05:01:33;23.55;;;14.63;;
65996;SDS011;52765;52.258;21.052;2022-10-16T05:03:58;26.00;;;14.50;;
65996;SDS011;52765;52.258;21.052;2022-10-16T05:06:24;24.50;;;15.05;;
65996;SDS011;52765;52.258;21.052;2022-10-16T05:08:49;25.75;;;15.50;;
65996;SDS011;52765;52.258;21.052;2022-10-16T05:11:16;23.70;;;14.88;;
65996;SDS011;52765;52.258;21.052;2022-10-16T05:13:42;22.02;;;14.10;;
65996;SDS011;52765;52.258;21.052;2022-10-16T05:16:07;26.52;;;15.15;;
65996;SDS011;52765;52.258;21.052;2022-10-16T05:18:33;22.45;;;14.70;;
65996;SDS011;52765;52.258;21.052;2022-10-16T05:20:58;24.25;;;13.70;;
65996;SDS011;52765;52.258;21.052;2022-10-16T05:23:24;26.60;;;14.98;;
65996;SDS011;52765;52.258;21.052;2022-10-16T05:25:53;21.20;;;14.48;;
65996;SDS011;52765;52.258;21.052;2022-10-16T05:28:20;23.58;;;13.75;;
65996;SDS011;52765;52.258;21.052;2022-10-16T05:30:46;24.58;;;14.70;;
65996;SDS011;52765;52.258;21.052;2022-10-16T05:33:12;22.13;;;13.77;;
65996;SDS011;52765;52.258;21.052;2022-10-16T05:35:44;27.98;;;14.60;;
65996;SDS011;52765;52.258;21.052;2022-10-16T05:38:10;24.08;;;14.20;;
65996;SDS011;52765;52.258;21.052;2022-10-16T05:40:38;21.80;;;13.75;;
65996;SDS011;52765;52.258;21.052;2022-10-16T05:43:04;21.15;;;13.40;;
65996;SDS011;52765;52.258;21.052;2022-10-16T05:45:29;21.92;;;13.60;;
65996;SDS011;52765;52.258;21.052;2022-10-16T05:47:55;24.33;;;14.32;;
65996;SDS011;52765;52.258;21.052;2022-10-16T05:50:20;18.90;;;12.98;;
65996;SDS011;52765;52.258;21.052;2022-10-16T05:52:46;21.98;;;13.77;;
65996;SDS011;52765;52.258;21.052;2022-10-16T05:55:14;24.55;;;13.65;;
65996;SDS011;52765;52.258;21.052;2022-10-16T05:57:40;23.48;;;13.45;;
65996;SDS011;52765;52.258;21.052;2022-10-16T06:00:06;20.27;;;12.02;;
65996;SDS011;52765;52.258;21.052;2022-10-16T06:02:32;24.55;;;14.07;;
65996;SDS011;52765;52.258;21.052;2022-10-16T06:04:57;23.83;;;13.77;;
65996;SDS011;52765;52.258;21.052;2022-10-16T06:07:23;23.15;;;14.77;;
65996;SDS011;52765;52.258;21.052;2022-10-16T06:09:49;26.65;;;13.27;;
65996;SDS011;52765;52.258;21.052;2022-10-16T06:12:16;24.27;;;14.10;;
65996;SDS011;52765;52.258;21.052;2022-10-16T06:14:41;23.25;;;13.27;;
65996;SDS011;52765;52.258;21.052;2022-10-16T06:17:07;19.42;;;12.65;;
65996;SDS011;52765;52.258;21.052;2022-10-16T06:19:32;23.52;;;13.68;;
65996;SDS011;52765;52.258;21.052;2022-10-16T06:21:58;22.33;;;13.32;;
65996;SDS011;52765;52.258;21.052;2022-10-16T06:24:24;23.13;;;13.55;;
65996;SDS011;52765;52.258;21.052;2022-10-16T06:26:50;21.70;;;13.18;;
65996;SDS011;52765;52.258;21.052;2022-10-16T06:29:15;23.30;;;12.65;;
65996;SDS011;52765;52.258;21.052;2022-10-16T06:31:41;21.40;;;13.05;;
65996;SDS011;52765;52.258;21.052;2022-10-16T06:34:08;20.65;;;13.15;;
65996;SDS011;52765;52.258;21.052;2022-10-16T06:36:35;19.27;;;12.68;;
65996;SDS011;52765;52.258;21.052;2022-10-16T06:39:02;18.92;;;12.50;;
65996;SDS011;52765;52.258;21.052;2022-10-16T06:41:28;20.00;;;12.95;;
65996;SDS011;52765;52.258;21.052;2022-10-16T06:43:54;24.00;;;13.75;;
65996;SDS011;52765;52.258;21.052;2022-10-16T06:46:20;18.90;;;12.32;;
65996;SDS011;52765;52.258;21.052;2022-10-16T06:48:49;20.08;;;13.15;;
65996;SDS011;52765;52.258;21.052;2022-10-16T06:51:15;20.30;;;13.18;;
65996;SDS011;52765;52.258;21.052;2022-10-16T06:53:43;22.02;;;13.10;;
65996;SDS011;52765;52.258;21.052;2022-10-16T06:56:12;20.88;;;13.48;;
65996;SDS011;52765;52.258;21.052;2022-10-16T06:58:39;17.50;;;12.82;;
65996;SDS011;52765;52.258;21.052;2022-10-16T07:01:05;23.10;;;13.15;;
65996;SDS011;52765;52.258;21.052;2022-10-16T07:03:32;15.35;;;11.70;;
65996;SDS011;52765;52.258;21.052;2022-10-16T07:06:01;20.27;;;13.52;;
65996;SDS011;52765;52.258;21.052;2022-10-16T07:08:30;17.42;;;11.90;;
65996;SDS011;52765;52.258;21.052;2022-10-16T07:10:58;23.38;;;13.85;;
65996;SDS011;52765;52.258;21.052;2022-10-16T07:13:27;19.27;;;12.27;;
65996;SDS011;52765;52.258;21.052;2022-10-16T07:15:53;22.05;;;12.68;;
65996;SDS011;52765;52.258;21.052;2022-10-16T07:18:18;18.08;;;12.27;;
65996;SDS011;52765;52.258;21.052;2022-10-16T07:20:44;24.05;;;12.38;;
65996;SDS011;52765;52.258;21.052;2022-10-16T07:23:09;20.05;;;12.38;;
65996;SDS011;52765;52.258;21.052;2022-10-16T07:25:35;18.48;;;12.00;;
65996;SDS011;52765;52.258;21.052;2022-10-16T07:28:00;17.80;;;11.82;;
65996;SDS011;52765;52.258;21.052;2022-10-16T07:30:26;19.92;;;12.90;;
65996;SDS011;52765;52.258;21.052;2022-10-16T07:32:51;17.80;;;11.50;;
65996;SDS011;52765;52.258;21.052;2022-10-16T07:35:17;22.48;;;12.93;;
65996;SDS011;52765;52.258;21.052;2022-10-16T07:37:45;20.00;;;12.02;;
65996;SDS011;52765;52.258;21.052;2022-10-16T07:40:11;17.65;;;11.80;;
65996;SDS011;52765;52.258;21.052;2022-10-16T07:42:37;21.88;;;12.40;;
65996;SDS011;52765;52.258;21.052;2022-10-16T07:45:05;17.95;;;11.13;;
65996;SDS011;52765;52.258;21.052;2022-10-16T07:47:31;18.17;;;11.32;;
65996;SDS011;52765;52.258;21.052;2022-10-16T07:49:56;18.17;;;10.90;;
65996;SDS011;52765;52.258;21.052;2022-10-16T07:52:22;16.92;;;11.27;;
65996;SDS011;52765;52.258;21.052;2022-10-16T07:54:48;17.38;;;12.18;;
65996;SDS011;52765;52.258;21.052;2022-10-16T07:57:13;18.75;;;11.73;;
65996;SDS011;52765;52.258;21.052;2022-10-16T07:59:44;23.80;;;12.35;;
65996;SDS011;52765;52.258;21.052;2022-10-16T08:02:13;22.13;;;13.13;;
65996;SDS011;52765;52.258;21.052;2022-10-16T08:04:38;24.70;;;13.02;;
65996;SDS011;52765;52.258;21.052;2022-10-16T08:07:06;20.77;;;12.45;;
65996;SDS011;52765;52.258;21.052;2022-10-16T08:09:32;17.80;;;12.23;;
65996;SDS011;52765;52.258;21.052;2022-10-16T08:11:58;18.02;;;11.35;;
65996;SDS011;52765;52.258;21.052;2022-10-16T08:14:23;25.15;;;12.65;;
65996;SDS011;52765;52.258;21.052;2022-10-16T08:16:49;16.75;;;11.65;;
65996;SDS011;52765;52.258;21.052;2022-10-16T08:19:14;18.30;;;11.35;;
65996;SDS011;52765;52.258;21.052;2022-10-16T08:21:41;17.73;;;12.23;;
65996;SDS011;52765;52.258;21.052;2022-10-16T08:24:07;19.58;;;11.77;;
65996;SDS011;52765;52.258;21.052;2022-10-16T08:26:32;16.40;;;10.45;;
65996;SDS011;52765;52.258;21.052;2022-10-16T08:28:58;18.20;;;10.77;;
65996;SDS011;52765;52.258;21.052;2022-10-16T08:31:23;18.25;;;11.20;;
65996;SDS011;52765;52.258;21.052;2022-10-16T08:33:52;15.85;;;10.52;;
65996;SDS011;52765;52.258;21.052;2022-10-16T08:36:18;14.85;;;10.52;;
65996;SDS011;52765;52.258;21.052;2022-10-16T08:38:49;16.83;;;10.65;;
65996;SDS011;52765;52.258;21.052;2022-10-16T08:47:02;14.88;;;9.80;;
65996;SDS011;52765;52.258;21.052;2022-10-16T08:50:10;14.10;;;9.35;;
65996;SDS011;52765;52.258;21.052;2022-10-16T08:52:43;19.38;;;12.38;;
65996;SDS011;52765;52.258;21.052;2022-10-16T08:58:09;22.23;;;11.57;;
65996;SDS011;52765;52.258;21.052;2022-10-16T09:00:40;15.55;;;10.98;;
65996;SDS011;52765;52.258;21.052;2022-10-16T09:17:06;13.57;;;9.35;;
65996;SDS011;52765;52.258;21.052;2022-10-16T09:22:40;14.73;;;8.95;;
65996;SDS011;52765;52.258;21.052;2022-10-16T09:25:13;13.57;;;9.80;;
65996;SDS011;52765;52.258;21.052;2022-10-16T09:30:12;14.68;;;9.65;;
65996;SDS011;52765;52.258;21.052;2022-10-16T09:32:41;18.30;;;10.63;;
65996;SDS011;52765;52.258;21.052;2022-10-16T09:35:31;16.58;;;10.07;;
65996;SDS011;52765;52.258;21.052;2022-10-16T09:38:02;15.63;;;10.57;;
65996;SDS011;52765;52.258;21.052;2022-10-16T09:40:32;20.80;;;12.98;;
65996;SDS011;52765;52.258;21.052;2022-10-16T09:43:22;17.10;;;10.57;;
65996;SDS011;52765;52.258;21.052;2022-10-16T09:48:21;14.63;;;9.35;;
65996;SDS011;52765;52.258;21.052;2022-10-16T09:51:19;12.38;;;8.55;;
65996;SDS011;52765;52.258;21.052;2022-10-16T09:53:47;19.58;;;9.93;;
65996;SDS011;52765;52.258;21.052;2022-10-16T09:56:25;17.55;;;10.05;;
65996;SDS011;52765;52.258;21.052;2022-10-16T09:58:54;15.77;;;10.27;;
65996;SDS011;52765;52.258;21.052;2022-10-16T10:01:28;14.13;;;8.75;;
65996;SDS011;52765;52.258;21.052;2022-10-16T10:04:05;21.48;;;10.38;;
65996;SDS011;52765;52.258;21.052;2022-10-16T10:06:33;13.15;;;9.10;;
65996;SDS011;52765;52.258;21.052;2022-10-16T10:09:17;16.60;;;10.18;;
65996;SDS011;52765;52.258;21.052;2022-10-16T10:20:33;15.45;;;9.90;;
65996;SDS011;52765;52.258;21.052;2022-10-16T10:22:45;14.85;;;9.77;;
65996;SDS011;52765;52.258;21.052;2022-10-16T10:35:46;13.07;;;9.27;;
65996;SDS011;52765;52.258;21.052;2022-10-16T10:38:23;14.40;;;9.00;;
65996;SDS011;52765;52.258;21.052;2022-10-16T10:41:07;13.07;;;8.85;;
65996;SDS011;52765;52.258;21.052;2022-10-16T10:46:41;12.18;;;8.68;;
65996;SDS011;52765;52.258;21.052;2022-10-16T10:54:51;13.10;;;8.93;;
65996;SDS011;52765;52.258;21.052;2022-10-16T10:57:47;15.05;;;9.25;;
65996;SDS011;52765;52.258;21.052;2022-10-16T11:00:42;14.23;;;8.38;;
65996;SDS011;52765;52.258;21.052;2022-10-16T11:06:05;12.80;;;8.38;;
65996;SDS011;52765;52.258;21.052;2022-10-16T11:11:11;15.43;;;8.95;;
65996;SDS011;52765;52.258;21.052;2022-10-16T11:14:06;15.85;;;9.60;;
65996;SDS011;52765;52.258;21.052;2022-10-16T11:16:52;13.27;;;9.25;;
65996;SDS011;52765;52.258;21.052;2022-10-16T11:19:35;16.92;;;9.38;;
65996;SDS011;52765;52.258;21.052;2022-10-16T11:27:45;15.45;;;9.27;;
65996;SDS011;52765;52.258;21.052;2022-10-16T11:30:20;12.82;;;8.95;;
65996;SDS011;52765;52.258;21.052;2022-10-16T11:33:00;13.98;;;8.63;;
65996;SDS011;52765;52.258;21.052;2022-10-16T11:35:38;13.70;;;9.00;;
65996;SDS011;52765;52.258;21.052;2022-10-16T11:38:33;13.50;;;8.20;;
65996;SDS011;52765;52.258;21.052;2022-10-16T11:44:04;15.23;;;9.20;;
65996;SDS011;52765;52.258;21.052;2022-10-16T11:46:35;17.67;;;8.98;;
65996;SDS011;52765;52.258;21.052;2022-10-16T11:49:15;12.70;;;8.80;;
65996;SDS011;52765;52.258;21.052;2022-10-16T11:51:48;13.60;;;8.15;;
65996;SDS011;52765;52.258;21.052;2022-10-16T11:57:11;11.23;;;7.93;;
65996;SDS011;52765;52.258;21.052;2022-10-16T11:59:47;13.38;;;7.93;;
65996;SDS011;52765;52.258;21.052;2022-10-16T12:05:09;11.60;;;7.80;;
65996;SDS011;52765;52.258;21.052;2022-10-16T12:08:12;12.90;;;8.70;;
65996;SDS011;52765;52.258;21.052;2022-10-16T12:10:40;14.55;;;8.18;;
65996;SDS011;52765;52.258;21.052;2022-10-16T12:18:43;12.68;;;7.47;;
65996;SDS011;52765;52.258;21.052;2022-10-16T12:21:10;11.40;;;8.10;;
65996;SDS011;52765;52.258;21.052;2022-10-16T12:28:56;10.82;;;7.65;;
65996;SDS011;52765;52.258;21.052;2022-10-16T12:31:43;11.70;;;7.35;;
65996;SDS011;52765;52.258;21.052;2022-10-16T12:34:28;13.63;;;8.27;;
65996;SDS011;52765;52.258;21.052;2022-10-16T12:37:12;18.55;;;8.82;;
65996;SDS011;52765;52.258;21.052;2022-10-16T12:39:53;11.57;;;8.05;;
65996;SDS011;52765;52.258;21.052;2022-10-16T12:44:52;14.07;;;9.70;;
65996;SDS011;52765;52.258;21.052;2022-10-16T12:47:24;12.98;;;8.50;;
65996;SDS011;52765;52.258;21.052;2022-10-16T12:52:49;13.15;;;8.77;;
65996;SDS011;52765;52.258;21.052;2022-10-16T12:55:15;12.38;;;8.73;;
65996;SDS011;52765;52.258;21.052;2022-10-16T13:21:46;16.25;;;9.07;;
65996;SDS011;52765;52.258;21.052;2022-10-16T13:25:14;12.38;;;8.15;;
65996;SDS011;52765;52.258;21.052;2022-10-16T13:30:15;15.50;;;8.65;;
65996;SDS011;52765;52.258;21.052;2022-10-16T13:32:47;17.20;;;8.90;;
65996;SDS011;52765;52.258;21.052;2022-10-16T13:35:19;12.63;;;8.23;;
65996;SDS011;52765;52.258;21.052;2022-10-16T13:40:34;12.75;;;8.82;;
65996;SDS011;52765;52.258;21.052;2022-10-16T13:43:00;13.27;;;8.70;;
65996;SDS011;52765;52.258;21.052;2022-10-16T13:45:28;13.90;;;8.23;;
65996;SDS011;52765;52.258;21.052;2022-10-16T13:48:03;17.80;;;8.77;;
65996;SDS011;52765;52.258;21.052;2022-10-16T13:50:32;15.30;;;8.95;;
65996;SDS011;52765;52.258;21.052;2022-10-16T13:53:04;10.70;;;7.93;;
65996;SDS011;52765;52.258;21.052;2022-10-16T13:55:31;11.77;;;7.20;;
65996;SDS011;52765;52.258;21.052;2022-10-16T13:58:12;12.00;;;7.88;;
65996;SDS011;52765;52.258;21.052;2022-10-16T14:00:40;13.07;;;7.60;;
65996;SDS011;52765;52.258;21.052;2022-10-16T14:03:17;12.25;;;7.82;;
65996;SDS011;52765;52.258;21.052;2022-10-16T14:05:48;12.10;;;7.55;;
65996;SDS011;52765;52.258;21.052;2022-10-16T14:08:18;13.93;;;8.13;;
65996;SDS011;52765;52.258;21.052;2022-10-16T14:10:47;10.48;;;7.32;;
65996;SDS011;52765;52.258;21.052;2022-10-16T14:13:16;11.30;;;7.85;;
65996;SDS011;52765;52.258;21.052;2022-10-16T14:15:48;12.38;;;7.90;;
65996;SDS011;52765;52.258;21.052;2022-10-16T14:18:23;12.68;;;8.00;;
65996;SDS011;52765;52.258;21.052;2022-10-16T14:20:51;10.95;;;7.75;;
65996;SDS011;52765;52.258;21.052;2022-10-16T14:23:28;14.52;;;8.02;;
65996;SDS011;52765;52.258;21.052;2022-10-16T14:28:34;14.88;;;7.82;;
65996;SDS011;52765;52.258;21.052;2022-10-16T14:31:00;11.20;;;7.70;;
65996;SDS011;52765;52.258;21.052;2022-10-16T14:36:09;12.40;;;8.27;;
65996;SDS011;52765;52.258;21.052;2022-10-16T14:41:32;11.55;;;7.55;;
65996;SDS011;52765;52.258;21.052;2022-10-16T14:44:10;12.00;;;7.30;;
65996;SDS011;52765;52.258;21.052;2022-10-16T14:46:37;12.38;;;8.07;;
65996;SDS011;52765;52.258;21.052;2022-10-16T14:51:36;11.43;;;7.80;;
65996;SDS011;52765;52.258;21.052;2022-10-16T14:54:10;13.30;;;7.70;;
65996;SDS011;52765;52.258;21.052;2022-10-16T14:56:57;11.98;;;7.70;;
65996;SDS011;52765;52.258;21.052;2022-10-16T15:02:15;13.98;;;8.50;;
65996;SDS011;52765;52.258;21.052;2022-10-16T15:04:52;13.65;;;7.63;;
65996;SDS011;52765;52.258;21.052;2022-10-16T15:07:17;15.93;;;8.10;;
65996;SDS011;52765;52.258;21.052;2022-10-16T15:09:43;12.38;;;8.23;;
65996;SDS011;52765;52.258;21.052;2022-10-16T15:12:11;15.68;;;9.13;;
65996;SDS011;52765;52.258;21.052;2022-10-16T15:14:37;12.07;;;8.90;;
65996;SDS011;52765;52.258;21.052;2022-10-16T15:17:02;12.35;;;8.48;;
65996;SDS011;52765;52.258;21.052;2022-10-16T15:19:28;14.93;;;8.32;;
65996;SDS011;52765;52.258;21.052;2022-10-16T15:21:54;16.50;;;10.00;;
65996;SDS011;52765;52.258;21.052;2022-10-16T15:24:19;16.40;;;9.00;;
65996;SDS011;52765;52.258;21.052;2022-10-16T15:26:46;12.73;;;8.48;;
65996;SDS011;52765;52.258;21.052;2022-10-16T15:29:12;11.85;;;8.15;;
65996;SDS011;52765;52.258;21.052;2022-10-16T15:31:38;14.30;;;9.30;;
65996;SDS011;52765;52.258;21.052;2022-10-16T15:34:07;13.45;;;8.52;;
65996;SDS011;52765;52.258;21.052;2022-10-16T15:36:35;15.38;;;9.30;;
65996;SDS011;52765;52.258;21.052;2022-10-16T15:39:10;17.27;;;9.10;;
65996;SDS011;52765;52.258;21.052;2022-10-16T15:41:39;12.55;;;8.40;;
65996;SDS011;52765;52.258;21.052;2022-10-16T15:44:04;11.60;;;8.45;;
65996;SDS011;52765;52.258;21.052;2022-10-16T15:46:30;13.52;;;8.27;;
65996;SDS011;52765;52.258;21.052;2022-10-16T15:48:56;13.82;;;8.98;;
65996;SDS011;52765;52.258;21.052;2022-10-16T15:51:23;13.38;;;7.95;;
65996;SDS011;52765;52.258;21.052;2022-10-16T15:53:49;12.57;;;8.90;;
65996;SDS011;52765;52.258;21.052;2022-10-16T15:56:16;13.82;;;9.55;;
65996;SDS011;52765;52.258;21.052;2022-10-16T15:58:42;18.58;;;9.73;;
65996;SDS011;52765;52.258;21.052;2022-10-16T16:01:08;13.38;;;9.30;;
65996;SDS011;52765;52.258;21.052;2022-10-16T16:03:37;14.25;;;8.85;;
65996;SDS011;52765;52.258;21.052;2022-10-16T16:06:06;10.95;;;8.13;;
65996;SDS011;52765;52.258;21.052;2022-10-16T16:08:33;14.82;;;9.55;;
65996;SDS011;52765;52.258;21.052;2022-10-16T16:11:06;15.02;;;9.18;;
65996;SDS011;52765;52.258;21.052;2022-10-16T16:13:34;14.00;;;9.10;;
65996;SDS011;52765;52.258;21.052;2022-10-16T16:16:05;19.20;;;10.43;;
65996;SDS011;52765;52.258;21.052;2022-10-16T16:18:33;17.02;;;9.68;;
65996;SDS011;52765;52.258;21.052;2022-10-16T16:20:59;17.67;;;10.68;;
65996;SDS011;52765;52.258;21.052;2022-10-16T16:23:24;20.27;;;14.02;;
65996;SDS011;52765;52.258;21.052;2022-10-16T16:26:03;18.42;;;11.70;;
65996;SDS011;52765;52.258;21.052;2022-10-16T16:28:29;18.05;;;11.32;;
65996;SDS011;52765;52.258;21.052;2022-10-16T16:30:55;13.90;;;9.73;;
65996;SDS011;52765;52.258;21.052;2022-10-16T16:33:20;14.93;;;9.85;;
65996;SDS011;52765;52.258;21.052;2022-10-16T16:35:46;13.90;;;9.18;;
65996;SDS011;52765;52.258;21.052;2022-10-16T16:38:12;13.90;;;8.88;;
65996;SDS011;52765;52.258;21.052;2022-10-16T16:40:37;14.45;;;8.82;;
65996;SDS011;52765;52.258;21.052;2022-10-16T16:43:03;13.80;;;9.10;;
65996;SDS011;52765;52.258;21.052;2022-10-16T16:45:29;12.18;;;8.65;;
65996;SDS011;52765;52.258;21.052;2022-10-16T16:47:54;13.98;;;9.20;;
65996;SDS011;52765;52.258;21.052;2022-10-16T16:50:20;12.75;;;9.13;;
65996;SDS011;52765;52.258;21.052;2022-10-16T16:52:45;15.32;;;9.50;;
65996;SDS011;52765;52.258;21.052;2022-10-16T16:55:11;15.77;;;9.45;;